sensor_id;sensor_type;location;lat;lon;timestamp;temperature;humidity
12436;DHT22;6282;51.440;6.938;2023-09-12T00:00:28;21.90;99.90
12436;DHT22;6282;51.440;6.938;2023-09-12T00:02:55;21.90;99.90
12436;DHT22;6282;51.440;6.938;2023-09-12T00:05:21;22.00;99.90
12436;DHT22;6282;51.440;6.938;2023-09-12T00:07:51;21.90;99.90
12436;DHT22;6282;51.440;6.938;2023-09-12T00:10:18;21.90;99.90
12436;DHT22;6282;51.440;6.938;2023-09-12T00:12:45;21.90;99.90
12436;DHT22;6282;51.440;6.938;2023-09-12T00:15:12;21.90;99.90
12436;DHT22;6282;51.440;6.938;2023-09-12T00:17:41;21.90;99.90
12436;DHT22;6282;51.440;6.938;2023-09-12T00:20:08;22.00;99.90
12436;DHT22;6282;51.440;6.938;2023-09-12T00:22:35;22.00;99.90
12436;DHT22;6282;51.440;6.938;2023-09-12T00:25:02;21.90;99.90
12436;DHT22;6282;51.440;6.938;2023-09-12T00:27:29;21.90;99.90
12436;DHT22;6282;51.440;6.938;2023-09-12T00:29:56;21.90;99.90
12436;DHT22;6282;51.440;6.938;2023-09-12T00:32:23;21.80;99.90
12436;DHT22;6282;51.440;6.938;2023-09-12T00:34:51;21.80;99.90
12436;DHT22;6282;51.440;6.938;2023-09-12T00:37:18;21.80;99.90
12436;DHT22;6282;51.440;6.938;2023-09-12T00:39:45;21.80;99.90
12436;DHT22;6282;51.440;6.938;2023-09-12T00:42:12;21.60;99.90
12436;DHT22;6282;51.440;6.938;2023-09-12T00:44:39;21.50;99.90
12436;DHT22;6282;51.440;6.938;2023-09-12T00:47:06;21.50;99.90
12436;DHT22;6282;51.440;6.938;2023-09-12T00:49:33;21.40;99.90
12436;DHT22;6282;51.440;6.938;2023-09-12T00:52:02;21.30;99.90
12436;DHT22;6282;51.440;6.938;2023-09-12T00:54:30;21.20;99.90
12436;DHT22;6282;51.440;6.938;2023-09-12T00:56:56;21.10;99.90
12436;DHT22;6282;51.440;6.938;2023-09-12T00:59:23;21.10;99.90
12436;DHT22;6282;51.440;6.938;2023-09-12T01:01:50;21.20;99.90
12436;DHT22;6282;51.440;6.938;2023-09-12T01:04:17;21.10;99.90
12436;DHT22;6282;51.440;6.938;2023-09-12T01:06:45;21.00;99.90
12436;DHT22;6282;51.440;6.938;2023-09-12T01:09:15;21.00;99.90
12436;DHT22;6282;51.440;6.938;2023-09-12T01:11:42;20.90;99.90
12436;DHT22;6282;51.440;6.938;2023-09-12T01:14:09;20.90;99.90
12436;DHT22;6282;51.440;6.938;2023-09-12T01:16:35;20.80;99.90
12436;DHT22;6282;51.440;6.938;2023-09-12T01:19:03;20.90;99.90
12436;DHT22;6282;51.440;6.938;2023-09-12T01:21:52;20.80;99.90
12436;DHT22;6282;51.440;6.938;2023-09-12T01:24:45;20.80;99.90
12436;DHT22;6282;51.440;6.938;2023-09-12T01:27:24;20.80;99.90
12436;DHT22;6282;51.440;6.938;2023-09-12T01:29:56;20.90;99.90
12436;DHT22;6282;51.440;6.938;2023-09-12T01:32:23;21.00;99.90
12436;DHT22;6282;51.440;6.938;2023-09-12T01:34:50;21.00;99.90
12436;DHT22;6282;51.440;6.938;2023-09-12T01:37:17;21.10;99.90
12436;DHT22;6282;51.440;6.938;2023-09-12T01:39:44;21.10;99.90
12436;DHT22;6282;51.440;6.938;2023-09-12T01:42:13;21.10;99.90
12436;DHT22;6282;51.440;6.938;2023-09-12T01:44:43;21.00;99.90
12436;DHT22;6282;51.440;6.938;2023-09-12T01:47:11;21.00;99.90
12436;DHT22;6282;51.440;6.938;2023-09-12T01:49:40;20.90;99.90
12436;DHT22;6282;51.440;6.938;2023-09-12T01:52:07;20.90;99.90
12436;DHT22;6282;51.440;6.938;2023-09-12T01:54:35;20.90;99.90
12436;DHT22;6282;51.440;6.938;2023-09-12T01:57:03;20.90;99.90
12436;DHT22;6282;51.440;6.938;2023-09-12T01:59:30;20.90;99.90
12436;DHT22;6282;51.440;6.938;2023-09-12T02:01:59;20.90;99.90
12436;DHT22;6282;51.440;6.938;2023-09-12T02:04:26;21.00;99.90
12436;DHT22;6282;51.440;6.938;2023-09-12T02:06:53;20.90;99.90
12436;DHT22;6282;51.440;6.938;2023-09-12T02:09:20;20.90;99.90
12436;DHT22;6282;51.440;6.938;2023-09-12T02:11:50;20.90;99.90
12436;DHT22;6282;51.440;6.938;2023-09-12T02:14:17;20.90;99.90
12436;DHT22;6282;51.440;6.938;2023-09-12T02:16:44;21.00;99.90
12436;DHT22;6282;51.440;6.938;2023-09-12T02:19:12;21.00;99.90
12436;DHT22;6282;51.440;6.938;2023-09-12T02:21:39;21.10;99.90
12436;DHT22;6282;51.440;6.938;2023-09-12T02:24:10;21.10;99.90
12436;DHT22;6282;51.440;6.938;2023-09-12T02:26:37;21.00;99.90
12436;DHT22;6282;51.440;6.938;2023-09-12T02:29:04;21.00;99.90
12436;DHT22;6282;51.440;6.938;2023-09-12T02:31:31;21.00;99.90
12436;DHT22;6282;51.440;6.938;2023-09-12T02:33:58;20.90;99.90
12436;DHT22;6282;51.440;6.938;2023-09-12T02:36:28;21.00;99.90
12436;DHT22;6282;51.440;6.938;2023-09-12T02:38:55;21.00;99.90
12436;DHT22;6282;51.440;6.938;2023-09-12T02:41:22;21.10;99.90
12436;DHT22;6282;51.440;6.938;2023-09-12T02:43:49;21.20;99.90
12436;DHT22;6282;51.440;6.938;2023-09-12T02:46:16;21.30;99.90
12436;DHT22;6282;51.440;6.938;2023-09-12T02:48:42;21.30;99.90
12436;DHT22;6282;51.440;6.938;2023-09-12T02:51:09;21.30;99.90
12436;DHT22;6282;51.440;6.938;2023-09-12T02:53:37;21.30;99.90
12436;DHT22;6282;51.440;6.938;2023-09-12T02:56:05;21.30;99.90
12436;DHT22;6282;51.440;6.938;2023-09-12T02:58:31;21.30;99.90
12436;DHT22;6282;51.440;6.938;2023-09-12T03:00:58;21.20;99.90
12436;DHT22;6282;51.440;6.938;2023-09-12T03:03:27;21.20;99.90
12436;DHT22;6282;51.440;6.938;2023-09-12T03:06:02;21.10;99.90
12436;DHT22;6282;51.440;6.938;2023-09-12T03:08:30;21.10;99.90
12436;DHT22;6282;51.440;6.938;2023-09-12T03:10:58;21.00;99.90
12436;DHT22;6282;51.440;6.938;2023-09-12T03:13:28;21.00;99.90
12436;DHT22;6282;51.440;6.938;2023-09-12T03:15:55;21.00;99.90
12436;DHT22;6282;51.440;6.938;2023-09-12T03:18:21;21.00;99.90
12436;DHT22;6282;51.440;6.938;2023-09-12T03:20:48;21.00;99.90
12436;DHT22;6282;51.440;6.938;2023-09-12T03:23:15;21.10;99.90
12436;DHT22;6282;51.440;6.938;2023-09-12T03:25:42;21.10;99.90
12436;DHT22;6282;51.440;6.938;2023-09-12T03:28:10;21.00;99.90
12436;DHT22;6282;51.440;6.938;2023-09-12T03:30:38;21.10;99.90
12436;DHT22;6282;51.440;6.938;2023-09-12T03:33:05;21.10;99.90
12436;DHT22;6282;51.440;6.938;2023-09-12T03:35:33;21.20;99.90
12436;DHT22;6282;51.440;6.938;2023-09-12T03:38:00;21.20;99.90
12436;DHT22;6282;51.440;6.938;2023-09-12T03:40:28;21.20;99.90
12436;DHT22;6282;51.440;6.938;2023-09-12T03:42:55;21.20;99.90
12436;DHT22;6282;51.440;6.938;2023-09-12T03:45:23;21.20;99.90
12436;DHT22;6282;51.440;6.938;2023-09-12T03:47:51;21.10;99.90
12436;DHT22;6282;51.440;6.938;2023-09-12T03:50:18;21.00;99.90
12436;DHT22;6282;51.440;6.938;2023-09-12T03:52:44;21.00;99.90
12436;DHT22;6282;51.440;6.938;2023-09-12T03:55:11;21.00;99.90
12436;DHT22;6282;51.440;6.938;2023-09-12T03:57:38;21.00;99.90
12436;DHT22;6282;51.440;6.938;2023-09-12T04:00:06;21.00;99.90
12436;DHT22;6282;51.440;6.938;2023-09-12T04:02:35;20.90;99.90
12436;DHT22;6282;51.440;6.938;2023-09-12T04:05:02;20.80;99.90
12436;DHT22;6282;51.440;6.938;2023-09-12T04:07:29;20.80;99.90
12436;DHT22;6282;51.440;6.938;2023-09-12T04:09:56;20.70;99.90
12436;DHT22;6282;51.440;6.938;2023-09-12T04:12:23;20.70;99.90
12436;DHT22;6282;51.440;6.938;2023-09-12T04:14:50;20.70;99.90
12436;DHT22;6282;51.440;6.938;2023-09-12T04:17:17;20.80;99.90
12436;DHT22;6282;51.440;6.938;2023-09-12T04:19:45;20.60;99.90
12436;DHT22;6282;51.440;6.938;2023-09-12T04:22:13;20.60;99.90
12436;DHT22;6282;51.440;6.938;2023-09-12T04:24:40;20.60;99.90
12436;DHT22;6282;51.440;6.938;2023-09-12T04:27:06;20.50;99.90
12436;DHT22;6282;51.440;6.938;2023-09-12T04:29:34;20.60;99.90
12436;DHT22;6282;51.440;6.938;2023-09-12T04:32:01;20.60;99.90
12436;DHT22;6282;51.440;6.938;2023-09-12T04:34:29;20.60;99.90
12436;DHT22;6282;51.440;6.938;2023-09-12T04:36:57;20.70;99.90
12436;DHT22;6282;51.440;6.938;2023-09-12T04:39:24;20.60;99.90
12436;DHT22;6282;51.440;6.938;2023-09-12T04:41:51;20.60;99.90
12436;DHT22;6282;51.440;6.938;2023-09-12T04:44:18;20.50;99.90
12436;DHT22;6282;51.440;6.938;2023-09-12T04:46:45;20.50;99.90
12436;DHT22;6282;51.440;6.938;2023-09-12T04:49:12;20.50;99.90
12436;DHT22;6282;51.440;6.938;2023-09-12T04:51:39;20.50;99.90
12436;DHT22;6282;51.440;6.938;2023-09-12T04:54:09;20.60;99.90
12436;DHT22;6282;51.440;6.938;2023-09-12T04:56:36;20.60;99.90
12436;DHT22;6282;51.440;6.938;2023-09-12T04:59:03;20.60;99.90
12436;DHT22;6282;51.440;6.938;2023-09-12T05:01:32;20.60;99.90
12436;DHT22;6282;51.440;6.938;2023-09-12T05:03:59;20.70;99.90
12436;DHT22;6282;51.440;6.938;2023-09-12T05:06:26;20.70;99.90
12436;DHT22;6282;51.440;6.938;2023-09-12T05:08:53;20.80;99.90
12436;DHT22;6282;51.440;6.938;2023-09-12T05:11:22;20.90;99.90
12436;DHT22;6282;51.440;6.938;2023-09-12T05:13:49;20.90;99.90
12436;DHT22;6282;51.440;6.938;2023-09-12T05:16:16;20.90;99.90
12436;DHT22;6282;51.440;6.938;2023-09-12T05:18:43;20.90;99.90
12436;DHT22;6282;51.440;6.938;2023-09-12T05:21:11;20.90;99.90
12436;DHT22;6282;51.440;6.938;2023-09-12T05:23:38;21.00;99.90
12436;DHT22;6282;51.440;6.938;2023-09-12T05:26:04;21.00;99.90
12436;DHT22;6282;51.440;6.938;2023-09-12T05:28:34;21.00;99.90
12436;DHT22;6282;51.440;6.938;2023-09-12T05:31:01;20.90;99.90
12436;DHT22;6282;51.440;6.938;2023-09-12T05:33:28;21.00;99.90
12436;DHT22;6282;51.440;6.938;2023-09-12T05:35:55;21.00;99.90
12436;DHT22;6282;51.440;6.938;2023-09-12T05:38:21;21.00;99.90
12436;DHT22;6282;51.440;6.938;2023-09-12T05:40:49;21.10;99.90
12436;DHT22;6282;51.440;6.938;2023-09-12T05:43:21;21.10;99.90
12436;DHT22;6282;51.440;6.938;2023-09-12T05:45:49;21.20;99.90
12436;DHT22;6282;51.440;6.938;2023-09-12T05:48:16;21.20;99.90
12436;DHT22;6282;51.440;6.938;2023-09-12T05:50:43;21.30;99.90
12436;DHT22;6282;51.440;6.938;2023-09-12T05:53:10;21.30;99.90
12436;DHT22;6282;51.440;6.938;2023-09-12T05:55:36;21.20;99.90
12436;DHT22;6282;51.440;6.938;2023-09-12T05:58:03;21.30;99.90
12436;DHT22;6282;51.440;6.938;2023-09-12T06:00:31;21.40;99.90
12436;DHT22;6282;51.440;6.938;2023-09-12T06:02:59;21.40;99.90
12436;DHT22;6282;51.440;6.938;2023-09-12T06:05:26;21.50;99.90
12436;DHT22;6282;51.440;6.938;2023-09-12T06:07:54;21.60;99.90
12436;DHT22;6282;51.440;6.938;2023-09-12T06:10:21;21.60;99.90
12436;DHT22;6282;51.440;6.938;2023-09-12T06:12:48;21.70;99.90
12436;DHT22;6282;51.440;6.938;2023-09-12T06:15:15;21.60;99.90
12436;DHT22;6282;51.440;6.938;2023-09-12T06:17:42;21.50;99.90
12436;DHT22;6282;51.440;6.938;2023-09-12T06:20:11;21.40;99.90
12436;DHT22;6282;51.440;6.938;2023-09-12T06:22:38;21.20;99.90
12436;DHT22;6282;51.440;6.938;2023-09-12T06:25:06;21.00;99.90
12436;DHT22;6282;51.440;6.938;2023-09-12T06:27:32;20.70;99.90
12436;DHT22;6282;51.440;6.938;2023-09-12T06:29:59;20.10;99.90
12436;DHT22;6282;51.440;6.938;2023-09-12T06:32:26;19.50;99.90
12436;DHT22;6282;51.440;6.938;2023-09-12T06:34:53;19.50;99.90
12436;DHT22;6282;51.440;6.938;2023-09-12T06:37:21;19.40;99.90
12436;DHT22;6282;51.440;6.938;2023-09-12T06:39:49;19.30;99.90
12436;DHT22;6282;51.440;6.938;2023-09-12T06:42:16;19.40;99.90
12436;DHT22;6282;51.440;6.938;2023-09-12T06:44:43;19.70;99.90
12436;DHT22;6282;51.440;6.938;2023-09-12T06:47:10;19.70;99.90
12436;DHT22;6282;51.440;6.938;2023-09-12T06:49:37;19.60;99.90
12436;DHT22;6282;51.440;6.938;2023-09-12T06:52:05;19.60;99.90
12436;DHT22;6282;51.440;6.938;2023-09-12T06:54:34;19.40;99.90
12436;DHT22;6282;51.440;6.938;2023-09-12T06:57:01;19.10;99.90
12436;DHT22;6282;51.440;6.938;2023-09-12T06:59:28;19.00;99.90
12436;DHT22;6282;51.440;6.938;2023-09-12T07:01:55;19.00;99.90
12436;DHT22;6282;51.440;6.938;2023-09-12T07:04:22;19.00;99.90
12436;DHT22;6282;51.440;6.938;2023-09-12T07:06:49;19.10;99.90
12436;DHT22;6282;51.440;6.938;2023-09-12T07:09:16;19.30;99.90
12436;DHT22;6282;51.440;6.938;2023-09-12T07:11:45;19.30;99.90
12436;DHT22;6282;51.440;6.938;2023-09-12T07:14:12;19.20;99.90
12436;DHT22;6282;51.440;6.938;2023-09-12T07:16:39;19.20;99.90
12436;DHT22;6282;51.440;6.938;2023-09-12T07:19:06;19.50;99.90
12436;DHT22;6282;51.440;6.938;2023-09-12T07:21:33;19.60;99.90
12436;DHT22;6282;51.440;6.938;2023-09-12T07:24:00;19.50;99.90
12436;DHT22;6282;51.440;6.938;2023-09-12T07:26:27;19.70;99.90
12436;DHT22;6282;51.440;6.938;2023-09-12T07:28:55;19.80;99.90
12436;DHT22;6282;51.440;6.938;2023-09-12T07:31:22;19.70;99.90
12436;DHT22;6282;51.440;6.938;2023-09-12T07:33:48;19.80;99.90
12436;DHT22;6282;51.440;6.938;2023-09-12T07:36:16;19.80;99.90
12436;DHT22;6282;51.440;6.938;2023-09-12T07:38:43;19.70;99.90
12436;DHT22;6282;51.440;6.938;2023-09-12T07:41:11;19.80;99.90
12436;DHT22;6282;51.440;6.938;2023-09-12T07:43:37;19.80;99.90
12436;DHT22;6282;51.440;6.938;2023-09-12T07:46:07;19.90;99.90
12436;DHT22;6282;51.440;6.938;2023-09-12T07:48:33;20.00;99.90
12436;DHT22;6282;51.440;6.938;2023-09-12T07:51:00;20.10;99.90
12436;DHT22;6282;51.440;6.938;2023-09-12T07:53:28;20.10;99.90
12436;DHT22;6282;51.440;6.938;2023-09-12T07:55:59;20.10;99.90
12436;DHT22;6282;51.440;6.938;2023-09-12T07:58:26;20.10;99.90
12436;DHT22;6282;51.440;6.938;2023-09-12T08:00:52;20.50;99.90
12436;DHT22;6282;51.440;6.938;2023-09-12T08:03:20;20.40;99.90
12436;DHT22;6282;51.440;6.938;2023-09-12T08:05:54;19.80;99.90
12436;DHT22;6282;51.440;6.938;2023-09-12T08:08:21;19.90;99.90
12436;DHT22;6282;51.440;6.938;2023-09-12T08:15:42;20.30;99.90
12436;DHT22;6282;51.440;6.938;2023-09-12T08:18:10;20.50;99.90
12436;DHT22;6282;51.440;6.938;2023-09-12T08:20:38;20.60;99.90
12436;DHT22;6282;51.440;6.938;2023-09-12T08:25:33;20.50;99.90
12436;DHT22;6282;51.440;6.938;2023-09-12T08:32:55;22.60;99.90
12436;DHT22;6282;51.440;6.938;2023-09-12T08:37:50;22.80;99.90
12436;DHT22;6282;51.440;6.938;2023-09-12T08:42:44;24.40;99.90
12436;DHT22;6282;51.440;6.938;2023-09-12T08:45:13;25.40;99.90
12436;DHT22;6282;51.440;6.938;2023-09-12T08:47:41;26.00;99.90
12436;DHT22;6282;51.440;6.938;2023-09-12T08:50:10;26.60;99.90
12436;DHT22;6282;51.440;6.938;2023-09-12T08:55:07;28.60;99.90
12436;DHT22;6282;51.440;6.938;2023-09-12T08:57:36;28.50;99.90
12436;DHT22;6282;51.440;6.938;2023-09-12T09:02:34;28.90;99.90
12436;DHT22;6282;51.440;6.938;2023-09-12T09:05:02;29.10;99.90
12436;DHT22;6282;51.440;6.938;2023-09-12T09:07:32;29.30;99.90
12436;DHT22;6282;51.440;6.938;2023-09-12T09:10:02;28.80;99.90
12436;DHT22;6282;51.440;6.938;2023-09-12T09:17:26;27.20;99.90
12436;DHT22;6282;51.440;6.938;2023-09-12T09:30:12;26.20;99.90
12436;DHT22;6282;51.440;6.938;2023-09-12T09:35:07;25.70;99.90
12436;DHT22;6282;51.440;6.938;2023-09-12T09:40:07;25.60;99.90
12436;DHT22;6282;51.440;6.938;2023-09-12T09:47:32;25.60;99.90
12436;DHT22;6282;51.440;6.938;2023-09-12T10:02:36;25.10;99.90
12436;DHT22;6282;51.440;6.938;2023-09-12T10:07:40;25.10;99.90
12436;DHT22;6282;51.440;6.938;2023-09-12T10:10:13;24.70;99.90
12436;DHT22;6282;51.440;6.938;2023-09-12T10:15:30;24.70;99.90
12436;DHT22;6282;51.440;6.938;2023-09-12T10:20:40;24.60;99.90
12436;DHT22;6282;51.440;6.938;2023-09-12T10:23:23;24.50;99.90
12436;DHT22;6282;51.440;6.938;2023-09-12T10:26:13;24.70;99.90
12436;DHT22;6282;51.440;6.938;2023-09-12T10:28:43;24.90;99.90
12436;DHT22;6282;51.440;6.938;2023-09-12T10:31:12;25.00;99.90
12436;DHT22;6282;51.440;6.938;2023-09-12T10:33:42;25.00;99.90
12436;DHT22;6282;51.440;6.938;2023-09-12T10:36:11;25.20;99.90
12436;DHT22;6282;51.440;6.938;2023-09-12T10:38:42;25.20;99.90
12436;DHT22;6282;51.440;6.938;2023-09-12T10:41:12;25.10;99.90
12436;DHT22;6282;51.440;6.938;2023-09-12T10:47:05;24.60;99.90
12436;DHT22;6282;51.440;6.938;2023-09-12T10:49:33;24.60;99.90
12436;DHT22;6282;51.440;6.938;2023-09-12T10:52:01;24.40;99.90
12436;DHT22;6282;51.440;6.938;2023-09-12T10:57:07;24.80;99.90
12436;DHT22;6282;51.440;6.938;2023-09-12T11:00:09;24.80;99.90
12436;DHT22;6282;51.440;6.938;2023-09-12T11:02:38;24.90;99.90
12436;DHT22;6282;51.440;6.938;2023-09-12T11:05:07;25.00;99.90
12436;DHT22;6282;51.440;6.938;2023-09-12T11:07:57;24.90;99.90
12436;DHT22;6282;51.440;6.938;2023-09-12T11:10:26;24.80;99.90
12436;DHT22;6282;51.440;6.938;2023-09-12T11:15:25;25.00;99.90
12436;DHT22;6282;51.440;6.938;2023-09-12T11:18:01;25.10;99.90
12436;DHT22;6282;51.440;6.938;2023-09-12T11:20:49;25.70;99.90
12436;DHT22;6282;51.440;6.938;2023-09-12T11:23:18;25.40;99.90
12436;DHT22;6282;51.440;6.938;2023-09-12T11:25:46;25.20;99.90
12436;DHT22;6282;51.440;6.938;2023-09-12T11:30:55;25.40;99.90
12436;DHT22;6282;51.440;6.938;2023-09-12T11:33:24;25.50;99.90
12436;DHT22;6282;51.440;6.938;2023-09-12T11:35:52;26.20;99.90
12436;DHT22;6282;51.440;6.938;2023-09-12T11:38:28;25.60;99.90
12436;DHT22;6282;51.440;6.938;2023-09-12T11:40:57;25.40;99.90
12436;DHT22;6282;51.440;6.938;2023-09-12T11:43:26;25.50;99.90
12436;DHT22;6282;51.440;6.938;2023-09-12T11:45:55;25.50;99.90
12436;DHT22;6282;51.440;6.938;2023-09-12T11:48:22;25.60;99.90
12436;DHT22;6282;51.440;6.938;2023-09-12T11:50:51;25.30;99.90
12436;DHT22;6282;51.440;6.938;2023-09-12T11:53:20;25.30;99.90
12436;DHT22;6282;51.440;6.938;2023-09-12T11:55:51;25.40;99.90
12436;DHT22;6282;51.440;6.938;2023-09-12T11:58:20;25.50;99.90
12436;DHT22;6282;51.440;6.938;2023-09-12T12:00:49;24.80;99.90
12436;DHT22;6282;51.440;6.938;2023-09-12T12:05:46;25.50;99.90
12436;DHT22;6282;51.440;6.938;2023-09-12T12:08:14;25.80;99.90
12436;DHT22;6282;51.440;6.938;2023-09-12T12:13:15;25.40;99.90
12436;DHT22;6282;51.440;6.938;2023-09-12T12:20:37;25.50;99.90
12436;DHT22;6282;51.440;6.938;2023-09-12T12:25:34;25.80;99.90
12436;DHT22;6282;51.440;6.938;2023-09-12T12:28:02;25.80;99.90
12436;DHT22;6282;51.440;6.938;2023-09-12T12:30:32;25.90;99.90
12436;DHT22;6282;51.440;6.938;2023-09-12T12:33:01;25.70;99.90
12436;DHT22;6282;51.440;6.938;2023-09-12T12:35:28;25.80;99.90
12436;DHT22;6282;51.440;6.938;2023-09-12T12:37:56;26.30;99.90
12436;DHT22;6282;51.440;6.938;2023-09-12T12:45:19;26.20;99.90
12436;DHT22;6282;51.440;6.938;2023-09-12T12:47:51;26.30;99.90
12436;DHT22;6282;51.440;6.938;2023-09-12T12:50:18;26.80;99.90
12436;DHT22;6282;51.440;6.938;2023-09-12T12:52:47;26.40;99.90
12436;DHT22;6282;51.440;6.938;2023-09-12T12:55:15;26.50;99.90
12436;DHT22;6282;51.440;6.938;2023-09-12T12:57:43;26.50;99.90
12436;DHT22;6282;51.440;6.938;2023-09-12T13:00:11;26.20;99.90
12436;DHT22;6282;51.440;6.938;2023-09-12T13:02:39;26.20;99.90
12436;DHT22;6282;51.440;6.938;2023-09-12T13:05:21;26.20;99.90
12436;DHT22;6282;51.440;6.938;2023-09-12T13:07:49;26.20;99.90
12436;DHT22;6282;51.440;6.938;2023-09-12T13:12:44;26.20;99.90
12436;DHT22;6282;51.440;6.938;2023-09-12T13:15:12;26.20;99.90
12436;DHT22;6282;51.440;6.938;2023-09-12T13:17:40;26.10;99.90
12436;DHT22;6282;51.440;6.938;2023-09-12T13:20:09;25.80;99.90
12436;DHT22;6282;51.440;6.938;2023-09-12T13:22:36;26.10;99.90
12436;DHT22;6282;51.440;6.938;2023-09-12T13:25:05;26.30;99.90
12436;DHT22;6282;51.440;6.938;2023-09-12T13:27:32;25.00;99.90
12436;DHT22;6282;51.440;6.938;2023-09-12T13:29:59;26.30;99.90
12436;DHT22;6282;51.440;6.938;2023-09-12T13:32:26;26.70;99.90
12436;DHT22;6282;51.440;6.938;2023-09-12T13:37:22;25.80;99.90
12436;DHT22;6282;51.440;6.938;2023-09-12T13:39:48;25.80;99.90
12436;DHT22;6282;51.440;6.938;2023-09-12T13:42:16;26.70;99.90
12436;DHT22;6282;51.440;6.938;2023-09-12T13:44:45;26.10;99.90
12436;DHT22;6282;51.440;6.938;2023-09-12T13:47:11;25.90;99.90
12436;DHT22;6282;51.440;6.938;2023-09-12T13:49:38;25.70;99.90
12436;DHT22;6282;51.440;6.938;2023-09-12T13:52:06;26.20;99.90
12436;DHT22;6282;51.440;6.938;2023-09-12T13:54:34;25.80;99.90
12436;DHT22;6282;51.440;6.938;2023-09-12T13:57:01;26.10;99.90
12436;DHT22;6282;51.440;6.938;2023-09-12T13:59:28;26.20;99.90
12436;DHT22;6282;51.440;6.938;2023-09-12T14:04:22;26.00;99.90
12436;DHT22;6282;51.440;6.938;2023-09-12T14:06:49;25.60;99.90
12436;DHT22;6282;51.440;6.938;2023-09-12T14:09:15;25.80;99.90
12436;DHT22;6282;51.440;6.938;2023-09-12T14:11:44;26.20;99.90
12436;DHT22;6282;51.440;6.938;2023-09-12T14:14:12;25.80;99.90
12436;DHT22;6282;51.440;6.938;2023-09-12T14:16:39;26.30;99.90
12436;DHT22;6282;51.440;6.938;2023-09-12T14:19:05;26.40;99.90
12436;DHT22;6282;51.440;6.938;2023-09-12T14:21:32;26.20;99.90
12436;DHT22;6282;51.440;6.938;2023-09-12T14:23:59;25.80;99.90
12436;DHT22;6282;51.440;6.938;2023-09-12T14:26:26;26.20;99.90
12436;DHT22;6282;51.440;6.938;2023-09-12T14:28:54;26.50;99.90
12436;DHT22;6282;51.440;6.938;2023-09-12T14:31:22;26.10;99.90
12436;DHT22;6282;51.440;6.938;2023-09-12T14:36:17;25.80;99.90
12436;DHT22;6282;51.440;6.938;2023-09-12T14:38:44;25.50;99.90
12436;DHT22;6282;51.440;6.938;2023-09-12T14:41:12;25.90;99.90
12436;DHT22;6282;51.440;6.938;2023-09-12T14:46:08;26.20;99.90
12436;DHT22;6282;51.440;6.938;2023-09-12T14:51:03;26.40;99.90
12436;DHT22;6282;51.440;6.938;2023-09-12T15:03:25;26.90;99.90
12436;DHT22;6282;51.440;6.938;2023-09-12T15:13:13;26.30;99.90
12436;DHT22;6282;51.440;6.938;2023-09-12T15:20:35;26.10;99.90
12436;DHT22;6282;51.440;6.938;2023-09-12T15:27:58;25.50;99.90
12436;DHT22;6282;51.440;6.938;2023-09-12T15:30:25;25.80;99.90
12436;DHT22;6282;51.440;6.938;2023-09-12T15:37:47;25.70;99.90
12436;DHT22;6282;51.440;6.938;2023-09-12T15:40:15;26.00;99.90
12436;DHT22;6282;51.440;6.938;2023-09-12T15:50:06;25.70;99.90
12436;DHT22;6282;51.440;6.938;2023-09-12T15:55:04;25.70;99.90
12436;DHT22;6282;51.440;6.938;2023-09-12T16:12:16;25.40;99.90
12436;DHT22;6282;51.440;6.938;2023-09-12T16:14:43;24.80;99.90
12436;DHT22;6282;51.440;6.938;2023-09-12T16:22:04;25.10;99.90
12436;DHT22;6282;51.440;6.938;2023-09-12T16:29:27;24.80;99.90
12436;DHT22;6282;51.440;6.938;2023-09-12T16:46:39;24.50;99.90
12436;DHT22;6282;51.440;6.938;2023-09-12T16:54:00;24.20;99.90
12436;DHT22;6282;51.440;6.938;2023-09-12T17:03:58;24.30;99.90
12436;DHT22;6282;51.440;6.938;2023-09-12T17:08:52;24.00;99.90
12436;DHT22;6282;51.440;6.938;2023-09-12T17:21:11;24.10;99.90
12436;DHT22;6282;51.440;6.938;2023-09-12T17:23:38;24.10;99.90
12436;DHT22;6282;51.440;6.938;2023-09-12T17:26:06;23.60;99.90
12436;DHT22;6282;51.440;6.938;2023-09-12T17:30:59;24.00;99.90
12436;DHT22;6282;51.440;6.938;2023-09-12T17:35:53;23.70;99.90
12436;DHT22;6282;51.440;6.938;2023-09-12T17:38:22;24.00;99.90
12436;DHT22;6282;51.440;6.938;2023-09-12T17:43:15;23.20;99.90
12436;DHT22;6282;51.440;6.938;2023-09-12T17:45:43;24.50;99.90
12436;DHT22;6282;51.440;6.938;2023-09-12T17:48:10;23.20;99.90
12436;DHT22;6282;51.440;6.938;2023-09-12T17:55:32;23.30;99.90
12436;DHT22;6282;51.440;6.938;2023-09-12T17:58:00;23.50;99.90
12436;DHT22;6282;51.440;6.938;2023-09-12T18:00:26;23.50;99.90
12436;DHT22;6282;51.440;6.938;2023-09-12T18:02:57;23.50;99.90
12436;DHT22;6282;51.440;6.938;2023-09-12T18:15:14;23.90;99.90
12436;DHT22;6282;51.440;6.938;2023-09-12T18:17:41;22.90;99.90
12436;DHT22;6282;51.440;6.938;2023-09-12T18:22:37;23.50;99.90
12436;DHT22;6282;51.440;6.938;2023-09-12T18:25:04;22.70;99.90
12436;DHT22;6282;51.440;6.938;2023-09-12T18:32:28;23.10;99.90
12436;DHT22;6282;51.440;6.938;2023-09-12T18:34:55;23.60;99.90
12436;DHT22;6282;51.440;6.938;2023-09-12T18:37:25;23.10;99.90
12436;DHT22;6282;51.440;6.938;2023-09-12T18:39:53;22.90;99.90
12436;DHT22;6282;51.440;6.938;2023-09-12T18:42:21;22.80;99.90
12436;DHT22;6282;51.440;6.938;2023-09-12T18:47:17;22.80;99.90
12436;DHT22;6282;51.440;6.938;2023-09-12T18:49:44;22.50;99.90
12436;DHT22;6282;51.440;6.938;2023-09-12T18:52:11;22.70;99.90
12436;DHT22;6282;51.440;6.938;2023-09-12T18:54:37;22.50;99.90
12436;DHT22;6282;51.440;6.938;2023-09-12T18:57:09;22.50;99.90
12436;DHT22;6282;51.440;6.938;2023-09-12T18:59:36;23.20;99.90
12436;DHT22;6282;51.440;6.938;2023-09-12T19:02:03;22.50;99.90
12436;DHT22;6282;51.440;6.938;2023-09-12T19:04:31;22.70;99.90
12436;DHT22;6282;51.440;6.938;2023-09-12T19:06:59;22.90;99.90
12436;DHT22;6282;51.440;6.938;2023-09-12T19:11:55;23.40;99.90
12436;DHT22;6282;51.440;6.938;2023-09-12T19:14:22;22.50;99.90
12436;DHT22;6282;51.440;6.938;2023-09-12T19:16:52;22.40;99.90
12436;DHT22;6282;51.440;6.938;2023-09-12T19:19:19;22.70;99.90
12436;DHT22;6282;51.440;6.938;2023-09-12T19:21:48;22.10;99.90
12436;DHT22;6282;51.440;6.938;2023-09-12T19:24:16;22.90;99.90
12436;DHT22;6282;51.440;6.938;2023-09-12T19:26:43;22.10;99.90
12436;DHT22;6282;51.440;6.938;2023-09-12T19:34:05;22.40;99.90
12436;DHT22;6282;51.440;6.938;2023-09-12T19:36:33;22.10;99.90
12436;DHT22;6282;51.440;6.938;2023-09-12T19:39:02;22.40;99.90
12436;DHT22;6282;51.440;6.938;2023-09-12T19:41:29;22.40;99.90
12436;DHT22;6282;51.440;6.938;2023-09-12T19:43:56;22.60;99.90
12436;DHT22;6282;51.440;6.938;2023-09-12T19:46:24;21.80;99.90
12436;DHT22;6282;51.440;6.938;2023-09-12T19:48:51;22.70;99.90
12436;DHT22;6282;51.440;6.938;2023-09-12T19:51:18;22.70;99.90
12436;DHT22;6282;51.440;6.938;2023-09-12T19:53:44;22.30;99.90
12436;DHT22;6282;51.440;6.938;2023-09-12T19:58:40;22.80;99.90
12436;DHT22;6282;51.440;6.938;2023-09-12T20:01:06;21.90;99.90
12436;DHT22;6282;51.440;6.938;2023-09-12T20:03:33;23.10;99.90
12436;DHT22;6282;51.440;6.938;2023-09-12T20:06:00;21.70;99.90
12436;DHT22;6282;51.440;6.938;2023-09-12T20:08:29;22.80;99.90